createdAt,value
2022-09-28T00:01:54.375Z,79
2022-09-28T00:04:25.719Z,79
2022-09-28T00:06:57.331Z,80
2022-09-28T00:09:29.204Z,80
2022-09-28T00:12:00.565Z,80
2022-09-28T00:14:30.474Z,80
2022-09-28T00:17:01.830Z,80
2022-09-28T00:19:33.744Z,80
2022-09-28T00:22:04.659Z,79
2022-09-28T00:24:35.583Z,79
2022-09-28T00:27:06.957Z,80
2022-09-28T00:29:39.247Z,79
2022-09-28T00:32:10.770Z,79
2022-09-28T00:34:42.728Z,78
2022-09-28T00:37:15.039Z,79
2022-09-28T00:39:46.528Z,78
2022-09-28T00:42:17.807Z,78
2022-09-28T00:44:49.033Z,77
2022-09-28T00:47:18.600Z,76
2022-09-28T00:49:49.720Z,75
2022-09-28T00:52:22.031Z,76
2022-09-28T00:54:53.301Z,74
2022-09-28T00:57:24.030Z,75
2022-09-28T00:59:55.792Z,76
2022-09-28T01:02:26.768Z,75
2022-09-28T01:04:58.937Z,74
2022-09-28T01:07:28.729Z,74
2022-09-28T01:09:59.993Z,75
2022-09-28T01:12:31.240Z,74
2022-09-28T01:15:02.999Z,75
2022-09-28T01:17:34.491Z,74
2022-09-28T01:20:07.303Z,74
2022-09-28T01:22:39.003Z,74
2022-09-28T01:25:10.037Z,75
2022-09-28T01:27:40.928Z,74
2022-09-28T01:30:12.228Z,74
2022-09-28T01:32:43.392Z,74
2022-09-28T01:35:14.482Z,74
2022-09-28T01:37:45.593Z,74
2022-09-28T01:40:17.595Z,75
2022-09-28T01:42:48.791Z,75
2022-09-28T01:45:20.087Z,74
2022-09-28T01:47:49.555Z,74
2022-09-28T01:50:21.605Z,74
2022-09-28T01:52:52.207Z,74
2022-09-28T01:55:23.578Z,74
2022-09-28T01:57:54.975Z,72
2022-09-28T02:00:26.467Z,73
2022-09-28T02:02:57.761Z,74
2022-09-28T02:05:29.430Z,73
2022-09-28T02:08:01.926Z,74
2022-09-28T02:10:33.444Z,74
2022-09-28T02:13:04.733Z,74
2022-09-28T02:15:36.644Z,74
2022-09-28T02:18:07.668Z,73
2022-09-28T02:20:37.768Z,73
2022-09-28T02:23:08.621Z,73
2022-09-28T02:25:40.610Z,74
2022-09-28T02:28:11.750Z,75
2022-09-28T02:30:46.977Z,75
2022-09-28T02:33:19.158Z,75
2022-09-28T02:35:51.481Z,75
2022-09-28T02:38:22.764Z,74
2022-09-28T02:40:55.462Z,75
2022-09-28T02:43:27.077Z,74
2022-09-28T02:45:59.048Z,74
2022-09-28T02:48:42.996Z,74
2022-09-28T02:51:01.820Z,74
2022-09-28T02:53:31.780Z,74
2022-09-28T02:56:05.052Z,74
2022-09-28T02:58:37.309Z,75
2022-09-28T03:01:08.216Z,75
2022-09-28T03:03:39.360Z,74
2022-09-28T03:06:10.548Z,75
2022-09-28T03:08:41.681Z,75
2022-09-28T03:11:12.371Z,75
2022-09-28T03:13:43.517Z,76
2022-09-28T03:16:16.903Z,76
2022-09-28T03:18:47.586Z,76
2022-09-28T03:21:19.788Z,76
2022-09-28T03:23:52.144Z,75
2022-09-28T03:26:23.583Z,75
2022-09-28T03:28:54.947Z,75
2022-09-28T03:31:26.235Z,75
2022-09-28T03:33:59.662Z,75
2022-09-28T03:36:31.165Z,76
2022-09-28T03:39:02.048Z,75
2022-09-28T03:41:33.638Z,75
2022-09-28T03:44:04.450Z,75
2022-09-28T03:46:35.819Z,75
2022-09-28T03:49:06.968Z,75
2022-09-28T03:51:37.878Z,75
2022-09-28T03:54:09.130Z,75
2022-09-28T03:56:40.029Z,74
2022-09-28T03:59:10.770Z,75
2022-09-28T04:01:41.532Z,75
2022-09-28T04:04:10.694Z,74
2022-09-28T04:06:45.614Z,74
2022-09-28T04:09:17.995Z,75
2022-09-28T04:12:03.186Z,74
2022-09-28T04:14:18.606Z,75
2022-09-28T04:16:49.298Z,75
2022-09-28T04:19:20.089Z,75
2022-09-28T04:21:50.734Z,75
2022-09-28T04:24:22.386Z,75
2022-09-28T04:26:53.492Z,76
2022-09-28T04:29:26.066Z,76
2022-09-28T04:31:57.813Z,76
2022-09-28T04:34:33.228Z,77
2022-09-28T04:37:00.868Z,77
2022-09-28T04:39:32.014Z,77
2022-09-28T04:42:03.441Z,77
2022-09-28T04:44:34.391Z,77
2022-09-28T04:47:05.617Z,77
2022-09-28T04:49:36.948Z,78
2022-09-28T04:52:07.599Z,77
2022-09-28T04:54:39.025Z,77
2022-09-28T04:57:10.542Z,76
2022-09-28T04:59:41.343Z,77
2022-09-28T05:02:15.318Z,77
2022-09-28T05:04:46.355Z,77
2022-09-28T05:07:17.387Z,77
2022-09-28T05:09:48.577Z,77
2022-09-28T05:12:19.581Z,78
2022-09-28T05:14:51.924Z,77
2022-09-28T05:17:23.312Z,77
2022-09-28T05:19:54.200Z,76
2022-09-28T05:22:25.594Z,76
2022-09-28T05:24:57.069Z,77
2022-09-28T05:27:29.079Z,76
2022-09-28T05:30:00.041Z,76
2022-09-28T05:32:31.442Z,76
2022-09-28T05:35:02.450Z,76
2022-09-28T05:37:33.604Z,75
2022-09-28T05:40:04.712Z,75
2022-09-28T05:42:35.588Z,75
2022-09-28T05:45:06.859Z,76
2022-09-28T05:47:38.981Z,76
2022-09-28T05:50:10.281Z,76
2022-09-28T05:52:41.152Z,76
2022-09-28T05:55:11.979Z,75
2022-09-28T05:57:42.807Z,75
2022-09-28T06:00:13.757Z,76
2022-09-28T06:02:45.543Z,77
2022-09-28T06:05:16.256Z,77
2022-09-28T06:07:47.289Z,77
2022-09-28T06:10:18.107Z,77
2022-09-28T06:12:50.005Z,77
2022-09-28T06:17:55.083Z,77
2022-09-28T06:20:25.725Z,77
2022-09-28T06:22:55.769Z,78
2022-09-28T06:25:25.411Z,77
2022-09-28T06:27:57.219Z,76
2022-09-28T06:30:28.713Z,75
2022-09-28T06:32:59.730Z,75
2022-09-28T06:35:30.484Z,75
2022-09-28T06:37:59.701Z,76
2022-09-28T06:40:31.048Z,76
2022-09-28T06:43:03.311Z,76
2022-09-28T06:45:34.098Z,76
2022-09-28T06:48:06.145Z,76
2022-09-28T06:50:37.609Z,76
2022-09-28T06:53:09.147Z,76
2022-09-28T06:55:40.027Z,75
2022-09-28T06:58:12.801Z,75
2022-09-28T07:00:43.582Z,74
2022-09-28T07:03:13.867Z,74
2022-09-28T07:05:44.573Z,74
2022-09-28T07:08:16.507Z,76
2022-09-28T07:10:47.277Z,76
2022-09-28T07:13:41.983Z,77
2022-09-28T07:15:50.047Z,77
2022-09-28T07:18:21.392Z,76
2022-09-28T07:20:54.625Z,76
2022-09-28T07:23:22.119Z,77
2022-09-28T07:25:52.940Z,76
2022-09-28T07:28:23.718Z,75
2022-09-28T07:30:54.635Z,76
2022-09-28T07:33:25.703Z,77
2022-09-28T07:36:01.205Z,75
2022-09-28T07:38:32.184Z,75
2022-09-28T07:41:03.354Z,76
2022-09-28T07:43:34.980Z,76
2022-09-28T07:46:07.028Z,76
2022-09-28T07:48:38.504Z,74
2022-09-28T07:51:10.181Z,73
2022-09-28T07:53:41.037Z,73
2022-09-28T07:56:11.747Z,73
2022-09-28T07:58:43.995Z,73
2022-09-28T08:01:14.912Z,73
2022-09-28T08:03:45.598Z,73
2022-09-28T08:06:16.033Z,72
2022-09-28T08:08:47.183Z,72
2022-09-28T08:11:17.489Z,72
2022-09-28T08:13:48.226Z,72
2022-09-28T08:16:17.733Z,70
2022-09-28T08:18:46.843Z,71
2022-09-28T08:21:18.195Z,71
2022-09-28T08:23:48.781Z,71
2022-09-28T08:26:19.695Z,72
2022-09-28T08:28:50.268Z,72
2022-09-28T08:31:19.873Z,72
2022-09-28T08:33:51.851Z,72
2022-09-28T08:36:22.758Z,72
2022-09-28T08:38:59.286Z,72
2022-09-28T08:41:30.347Z,72
2022-09-28T08:44:01.019Z,73
2022-09-28T08:46:31.490Z,73
2022-09-28T08:49:20.968Z,72
2022-09-28T08:51:33.367Z,72
2022-09-28T08:54:05.800Z,71
2022-09-28T08:56:35.415Z,71
2022-09-28T08:59:04.991Z,71
2022-09-28T09:01:37.513Z,70
2022-09-28T09:04:06.566Z,68
2022-09-28T09:06:37.744Z,68
2022-09-28T09:09:09.127Z,67
2022-09-28T09:11:40.643Z,67
2022-09-28T09:14:10.290Z,67
2022-09-28T09:16:41.295Z,67
2022-09-28T09:19:12.004Z,66
2022-09-28T09:21:45.346Z,65
2022-09-28T09:24:15.781Z,66
2022-09-28T09:26:46.679Z,65
2022-09-28T09:29:19.249Z,64
2022-09-28T09:31:50.744Z,65
2022-09-28T09:34:21.287Z,66
2022-09-28T09:37:00.446Z,65
2022-09-28T09:39:30.742Z,65
2022-09-28T09:42:04.384Z,65
2022-09-28T09:44:35.388Z,62
2022-09-28T09:47:07.570Z,64
2022-09-28T09:49:40.213Z,64
2022-09-28T09:52:11.008Z,64
2022-09-28T09:54:41.887Z,63
2022-09-28T09:57:12.272Z,64
2022-09-28T09:59:44.354Z,64
2022-09-28T10:02:16.029Z,64
2022-09-28T10:04:47.073Z,63
2022-09-28T10:07:18.071Z,64
2022-09-28T10:09:49.235Z,63
2022-09-28T10:12:20.027Z,64
2022-09-28T10:14:51.791Z,63
2022-09-28T10:17:22.589Z,63
2022-09-28T10:19:52.812Z,63
2022-09-28T10:22:23.463Z,62
2022-09-28T10:24:54.081Z,62
2022-09-28T10:27:25.352Z,62
2022-09-28T10:29:56.091Z,62
2022-09-28T10:32:28.363Z,62
2022-09-28T10:34:59.788Z,62
2022-09-28T10:37:31.527Z,63
2022-09-28T10:40:02.822Z,62
2022-09-28T10:42:33.547Z,62
2022-09-28T10:45:05.033Z,62
2022-09-28T10:47:40.721Z,63
2022-09-28T10:50:12.094Z,62
2022-09-28T10:52:41.637Z,62
2022-09-28T10:55:12.271Z,63
2022-09-28T10:57:44.037Z,62
2022-09-28T11:00:15.010Z,62
2022-09-28T11:02:49.032Z,62
2022-09-28T11:05:19.689Z,61
2022-09-28T11:07:50.633Z,60
2022-09-28T11:10:21.047Z,61
2022-09-28T11:15:23.020Z,62
2022-09-28T11:20:31.959Z,62
2022-09-28T11:23:02.947Z,61
2022-09-28T11:25:34.142Z,59
2022-09-28T11:28:05.543Z,60
2022-09-28T11:30:37.198Z,60
2022-09-28T11:33:08.906Z,60
2022-09-28T11:35:39.613Z,61
2022-09-28T11:38:10.257Z,61
2022-09-28T11:40:40.900Z,61
2022-09-28T11:43:13.242Z,61
2022-09-28T11:45:44.138Z,61
2022-09-28T11:48:14.894Z,60
2022-09-28T11:50:44.150Z,61
2022-09-28T11:53:15.035Z,61
2022-09-28T11:55:46.241Z,61
2022-09-28T11:58:15.671Z,62
2022-09-28T12:00:46.458Z,61
2022-09-28T12:03:17.641Z,61
2022-09-28T12:05:48.238Z,61
2022-09-28T12:08:19.125Z,61
2022-09-28T12:10:50.336Z,61
2022-09-28T12:13:22.180Z,61
2022-09-28T12:16:17.408Z,61
2022-09-28T12:18:24.357Z,61
2022-09-28T12:20:56.005Z,61
2022-09-28T12:23:26.948Z,61
2022-09-28T12:26:01.361Z,60
2022-09-28T12:28:32.666Z,60
2022-09-28T12:31:03.515Z,60
2022-09-28T12:33:34.582Z,60
2022-09-28T12:36:05.617Z,60
2022-09-28T12:38:36.441Z,60
2022-09-28T12:41:07.455Z,60
2022-09-28T12:43:37.808Z,59
2022-09-28T12:46:12.227Z,59
2022-09-28T12:48:40.986Z,59
2022-09-28T12:51:11.603Z,60
2022-09-28T12:53:42.670Z,60
2022-09-28T12:56:15.668Z,59
2022-09-28T12:58:44.579Z,59
2022-09-28T13:01:15.533Z,59
2022-09-28T13:03:46.510Z,58
2022-09-28T13:06:17.199Z,58
2022-09-28T13:08:47.851Z,56
2022-09-28T13:11:18.730Z,57
2022-09-28T13:13:48.235Z,57
2022-09-28T13:16:19.302Z,58
2022-09-28T13:18:48.890Z,57
2022-09-28T13:21:19.566Z,58
2022-09-28T13:23:55.399Z,57
2022-09-28T13:26:23.610Z,58
2022-09-28T13:28:54.818Z,57
2022-09-28T13:31:27.873Z,57
2022-09-28T13:33:57.414Z,59
2022-09-28T13:36:28.819Z,59
2022-09-28T13:39:00.921Z,58
2022-09-28T13:41:32.040Z,58
2022-09-28T13:44:03.843Z,59
2022-09-28T13:46:35.457Z,60
2022-09-28T13:49:05.660Z,60
2022-09-28T13:51:36.585Z,58
2022-09-28T13:54:08.166Z,60
2022-09-28T13:56:38.924Z,60
2022-09-28T13:59:09.605Z,60
2022-09-28T14:01:40.952Z,59
2022-09-28T14:04:11.686Z,60
2022-09-28T14:06:44.198Z,60
2022-09-28T14:09:14.647Z,60
2022-09-28T14:11:45.588Z,60
2022-09-28T14:14:15.178Z,60
2022-09-28T14:16:45.871Z,61
2022-09-28T14:19:16.526Z,62
2022-09-28T14:21:47.499Z,62
2022-09-28T14:24:18.330Z,62
2022-09-28T14:26:49.139Z,61
2022-09-28T14:29:19.683Z,61
2022-09-28T14:31:50.109Z,62
2022-09-28T14:34:22.162Z,61
2022-09-28T14:36:52.873Z,62
2022-09-28T14:39:23.923Z,62
2022-09-28T14:41:55.164Z,62
2022-09-28T14:44:26.354Z,62
2022-09-28T14:46:57.041Z,62
2022-09-28T14:49:28.635Z,63
2022-09-28T14:51:59.882Z,63
2022-09-28T14:54:31.034Z,63
2022-09-28T14:57:01.605Z,65
2022-09-28T14:59:32.115Z,65
2022-09-28T15:02:02.620Z,65
2022-09-28T15:04:33.268Z,66
2022-09-28T15:07:03.824Z,66
2022-09-28T15:09:34.573Z,65
2022-09-28T15:12:05.699Z,65
2022-09-28T15:14:36.557Z,66
2022-09-28T15:17:07.617Z,66
2022-09-28T15:19:38.738Z,65
2022-09-28T15:22:09.651Z,66
2022-09-28T15:24:41.747Z,65
2022-09-28T15:27:14.127Z,66
2022-09-28T15:29:44.877Z,67
2022-09-28T15:32:15.454Z,68
2022-09-28T15:34:45.863Z,68
2022-09-28T15:37:16.749Z,67
2022-09-28T15:39:46.961Z,68
2022-09-28T15:42:17.774Z,69
2022-09-28T15:44:47.926Z,69
2022-09-28T15:47:19.355Z,68
2022-09-28T15:49:51.046Z,67
2022-09-28T15:52:21.798Z,68
2022-09-28T15:54:52.378Z,69
2022-09-28T15:57:22.781Z,69
2022-09-28T15:59:53.692Z,69
2022-09-28T16:02:24.322Z,70
2022-09-28T16:04:55.542Z,70
2022-09-28T16:07:26.534Z,70
2022-09-28T16:09:57.262Z,71
2022-09-28T16:12:29.260Z,70
2022-09-28T16:15:00.124Z,70
2022-09-28T16:17:31.428Z,70
2022-09-28T16:20:01.956Z,70
2022-09-28T16:22:32.607Z,71
2022-09-28T16:25:04.132Z,71
2022-09-28T16:27:35.804Z,70
2022-09-28T16:30:07.162Z,70
2022-09-28T16:32:37.921Z,70
2022-09-28T16:35:09.706Z,71
2022-09-28T16:37:40.609Z,69
2022-09-28T16:40:11.414Z,69
2022-09-28T16:42:41.463Z,69
2022-09-28T16:45:11.208Z,70
2022-09-28T16:47:41.824Z,70
2022-09-28T16:50:13.659Z,70
2022-09-28T16:52:44.430Z,70
2022-09-28T16:55:36.121Z,70
2022-09-28T16:57:44.111Z,71
2022-09-28T17:00:14.957Z,71
2022-09-28T17:02:47.167Z,71
2022-09-28T17:05:17.160Z,71
2022-09-28T17:07:47.851Z,71
2022-09-28T17:10:18.626Z,71
2022-09-28T17:12:49.629Z,70
2022-09-28T17:15:20.221Z,70
2022-09-28T17:17:50.885Z,69
2022-09-28T17:20:21.428Z,70
2022-09-28T17:22:50.714Z,70
2022-09-28T17:25:21.680Z,70
2022-09-28T17:27:54.546Z,71
2022-09-28T17:30:25.983Z,71
2022-09-28T17:32:57.370Z,71
2022-09-28T17:35:28.840Z,71
2022-09-28T17:37:59.740Z,70
2022-09-28T17:40:30.637Z,70
2022-09-28T17:43:01.080Z,70
2022-09-28T17:45:31.714Z,71
2022-09-28T17:48:02.221Z,71
2022-09-28T17:50:34.488Z,71
2022-09-28T17:53:04.174Z,71
2022-09-28T17:55:33.751Z,71
2022-09-28T17:58:02.796Z,71
2022-09-28T18:00:33.232Z,71
2022-09-28T18:03:03.990Z,71
2022-09-28T18:05:35.316Z,71
2022-09-28T18:08:06.450Z,71
2022-09-28T18:10:37.662Z,71
2022-09-28T18:13:08.760Z,71
2022-09-28T18:15:39.717Z,71
2022-09-28T18:18:08.860Z,71
2022-09-28T18:20:39.934Z,71
2022-09-28T18:23:11.033Z,72
2022-09-28T18:25:41.879Z,71
2022-09-28T18:28:12.643Z,71
2022-09-28T18:30:44.421Z,71
2022-09-28T18:33:15.799Z,72
2022-09-28T18:35:46.867Z,71
2022-09-28T18:38:18.181Z,71
2022-09-28T18:40:49.508Z,72
2022-09-28T18:43:20.574Z,72
2022-09-28T18:45:51.734Z,71
2022-09-28T18:48:22.325Z,72
2022-09-28T18:50:53.615Z,72
2022-09-28T18:53:24.985Z,72
2022-09-28T18:55:56.510Z,72
2022-09-28T18:58:26.791Z,72
2022-09-28T19:01:08.621Z,72
2022-09-28T19:03:28.409Z,72
2022-09-28T19:05:59.042Z,72
2022-09-28T19:08:29.981Z,72
2022-09-28T19:11:00.448Z,72
2022-09-28T19:13:31.065Z,72
2022-09-28T19:16:01.720Z,73
2022-09-28T19:18:32.424Z,73
2022-09-28T19:21:03.425Z,73
2022-09-28T19:23:34.930Z,73
2022-09-28T19:26:07.036Z,73
2022-09-28T19:28:38.068Z,73
2022-09-28T19:31:08.421Z,73
2022-09-28T19:33:39.064Z,73
2022-09-28T19:36:10.103Z,73
2022-09-28T19:38:41.257Z,74
2022-09-28T19:41:12.312Z,73
2022-09-28T19:43:44.204Z,74
2022-09-28T19:46:13.504Z,74
2022-09-28T19:48:46.947Z,73
2022-09-28T19:51:17.367Z,73
2022-09-28T19:53:47.939Z,73
2022-09-28T19:56:18.320Z,73
2022-09-28T19:58:48.678Z,73
2022-09-28T20:01:20.778Z,73
2022-09-28T20:03:51.414Z,73
2022-09-28T20:06:22.453Z,73
2022-09-28T20:08:53.262Z,72
2022-09-28T20:11:24.039Z,73
2022-09-28T20:13:54.887Z,73
2022-09-28T20:16:26.372Z,74
2022-09-28T20:18:57.409Z,74
2022-09-28T20:21:28.423Z,74
2022-09-28T20:23:59.490Z,74
2022-09-28T20:26:30.787Z,74
2022-09-28T20:29:00.324Z,73
2022-09-28T20:31:30.768Z,73
2022-09-28T20:34:01.778Z,73
2022-09-28T20:36:33.380Z,73
2022-09-28T20:39:04.109Z,72
2022-09-28T20:41:35.311Z,72
2022-09-28T20:44:06.441Z,72
2022-09-28T20:46:35.047Z,72
2022-09-28T20:49:05.347Z,72
2022-09-28T20:51:37.776Z,72
2022-09-28T20:54:09.075Z,72
2022-09-28T20:56:38.667Z,72
2022-09-28T20:59:09.116Z,72
2022-09-28T21:01:40.776Z,71
2022-09-28T21:04:11.880Z,71
2022-09-28T21:06:42.622Z,71
2022-09-28T21:09:15.134Z,71
2022-09-28T21:11:45.725Z,72
2022-09-28T21:14:16.154Z,71
2022-09-28T21:16:48.110Z,70
2022-09-28T21:19:19.513Z,70
2022-09-28T21:21:51.077Z,70
2022-09-28T21:24:21.551Z,70
2022-09-28T21:26:52.438Z,70
2022-09-28T21:29:23.711Z,70
2022-09-28T21:31:52.407Z,70
2022-09-28T21:34:23.369Z,68
2022-09-28T21:36:53.787Z,69
2022-09-28T21:39:25.233Z,69
2022-09-28T21:41:56.405Z,70
2022-09-28T21:44:27.068Z,70
2022-09-28T21:46:59.343Z,69
2022-09-28T21:49:30.331Z,69
2022-09-28T21:52:01.211Z,69
2022-09-28T21:54:32.002Z,69
2022-09-28T21:57:02.970Z,68
2022-09-28T21:59:34.244Z,69
2022-09-28T22:02:05.766Z,68
2022-09-28T22:04:36.921Z,68
2022-09-28T22:07:07.388Z,68
2022-09-28T22:09:37.043Z,68
2022-09-28T22:12:08.353Z,69
2022-09-28T22:14:39.567Z,68
2022-09-28T22:17:10.953Z,68
2022-09-28T22:19:42.041Z,68
2022-09-28T22:22:13.390Z,67
2022-09-28T22:24:44.385Z,67
2022-09-28T22:27:15.107Z,68
2022-09-28T22:29:45.073Z,68
2022-09-28T22:32:15.640Z,67
2022-09-28T22:34:45.513Z,66
2022-09-28T22:37:16.197Z,67
2022-09-28T22:39:47.932Z,66
2022-09-28T22:42:19.016Z,67
2022-09-28T22:44:50.129Z,66
2022-09-28T22:47:21.640Z,66
2022-09-28T22:49:52.190Z,66
2022-09-28T22:52:21.639Z,66
2022-09-28T22:54:53.469Z,66
2022-09-28T22:57:24.471Z,66
2022-09-28T22:59:57.282Z,66
2022-09-28T23:02:32.530Z,66
2022-09-28T23:05:04.058Z,67
2022-09-28T23:07:35.003Z,66
2022-09-28T23:10:06.549Z,67
2022-09-28T23:12:37.950Z,66
2022-09-28T23:15:09.083Z,66
2022-09-28T23:17:39.975Z,67
2022-09-28T23:20:11.080Z,66
2022-09-28T23:22:41.951Z,66
2022-09-28T23:25:14.114Z,67
2022-09-28T23:27:45.977Z,67
2022-09-28T23:30:17.017Z,66
2022-09-28T23:32:48.534Z,66
2022-09-28T23:35:20.194Z,67
2022-09-28T23:37:49.463Z,66
2022-09-28T23:40:22.330Z,66
2022-09-28T23:42:53.873Z,67
2022-09-28T23:45:26.525Z,66
2022-09-28T23:47:58.410Z,67
2022-09-28T23:50:29.695Z,67
2022-09-28T23:53:00.789Z,67
2022-09-28T23:55:30.502Z,67
2022-09-28T23:58:01.217Z,66
